Lilly, PA (15938)

5:18 PM EDT on July 28, 2016 (GMT -0400)
Portage Boro | | Change Station

Elev 1690 ft 40.39 °N, 78.67 °W | Updated 31 seconds ago

Light Rain
Light Rain
71.4 °F
Feels Like 71.4 °F
N
0.0
Wind Variable Wind from SSW
Gusts 0.0 mph

Today
High -- | Low -- °F
--% Chance of Precip.
Yesterday
High -- | Low -- °F
Precip. -- in
Pressure 29.97 in
Visibility 5.0 miles
Clouds Few 600 ft
Scattered Clouds 9000 ft
Overcast 11000 ft
Dew Point 70 °F
Humidity 97%
Rainfall 0.24 in
Snow Depth Not available.
6:08 AM 8:32 PM
Waning Crescent, 28% visible
SPECI KJST 282104Z AUTO 25005KT 5SM -RA FEW006 SCT090 OVC110 21/18 A2997 RMK AO2 P0000 T02060178
Pressure 29.97 in
Visibility 5.0 miles
Clouds Few 600 ft
Scattered Clouds 9000 ft
Overcast 11000 ft
Dew Point 70 °F
Humidity 97%
Rainfall 0.24 in
Snow Depth Not available.
6:08 AM 8:32 PM
Waning Crescent, 28% visible
SPECI KJST 282104Z AUTO 25005KT 5SM -RA FEW006 SCT090 OVC110 21/18 A2997 RMK AO2 P0000 T02060178

10-Day Weather Forecast

Almanac

Astronomy

Jul. 28, 2016 Rise Set
Actual Time
Civil Twilight
Nautical Twilight
Astronomical Twilight
Moon
Length of Visible Light
Length of Day
Tomorrow will be .
, % of the Moon is Illuminated

Today's Extremes

State Highs State Lows

Community

WunderPhotos

Upload Photos

1,928,224 photos uploaded!

WunderBlog® & News

Nearby

Air Quality

  Air Quality AQ Index Pollutant
Not available.

Snow Depth

Station Depth Elevation

Earthquake Activity

City Distance Mag. Time & Date
Minimum magnitude displayed is 2.5.

Coastal Water Temperatures

Place Temperature

Stations

Nearby Weather Stations

Station Location Temp. Windchill Dew Point Humidity Wind Precip. Elev Updated Type
                   

Watches & Warnings

There are currently no watches in effect.